Terminal Aerodrome Forecast
Issued by NWS

Home | Current Version | Previous Version | Text Only | Print | Product List | Glossary On
Versions: 1 2 3 4 5 6 7 8 9 10 11 12 13 14 15
000
FTUS46 KHNX 211120
TAFVIS
TAF
KVIS 211120Z 2112/2212 VRB03KT 1/4SM FG OVC001
     FM211900 VRB03KT 2SM BR SCT001
     FM212000 VRB03KT 5SM BR SCT035 BKN050
     FM220800 VRB03KT 1/4SM FG OVC001=

USA.gov is the U.S. government's official web portal to all federal, state and local government web resources and services.